sensor_id;sensor_type;location;lat;lon;timestamp;temperature;humidity
21944;DHT22;11136;48.778;9.126;2023-09-19T00:02:19;18.50;99.90
21944;DHT22;11136;48.778;9.126;2023-09-19T00:04:44;18.50;99.90
21944;DHT22;11136;48.778;9.126;2023-09-19T00:07:11;18.50;99.90
21944;DHT22;11136;48.778;9.126;2023-09-19T00:09:37;18.40;99.90
21944;DHT22;11136;48.778;9.126;2023-09-19T00:12:04;18.50;99.90
21944;DHT22;11136;48.778;9.126;2023-09-19T00:14:30;18.40;99.90
21944;DHT22;11136;48.778;9.126;2023-09-19T00:16:55;18.50;99.90
21944;DHT22;11136;48.778;9.126;2023-09-19T00:19:25;18.50;99.90
21944;DHT22;11136;48.778;9.126;2023-09-19T00:21:50;18.50;99.90
21944;DHT22;11136;48.778;9.126;2023-09-19T00:24:19;18.40;99.90
21944;DHT22;11136;48.778;9.126;2023-09-19T00:26:45;18.50;99.90
21944;DHT22;11136;48.778;9.126;2023-09-19T00:29:13;18.50;99.90
21944;DHT22;11136;48.778;9.126;2023-09-19T00:31:44;18.50;99.90
21944;DHT22;11136;48.778;9.126;2023-09-19T00:34:10;18.50;99.90
21944;DHT22;11136;48.778;9.126;2023-09-19T00:36:37;18.50;99.90
21944;DHT22;11136;48.778;9.126;2023-09-19T00:39:05;18.50;99.90
21944;DHT22;11136;48.778;9.126;2023-09-19T00:41:34;18.50;99.90
21944;DHT22;11136;48.778;9.126;2023-09-19T00:44:03;18.50;99.90
21944;DHT22;11136;48.778;9.126;2023-09-19T00:46:31;18.50;99.90
21944;DHT22;11136;48.778;9.126;2023-09-19T00:48:58;18.50;99.90
21944;DHT22;11136;48.778;9.126;2023-09-19T00:51:27;18.50;99.90
21944;DHT22;11136;48.778;9.126;2023-09-19T00:53:55;18.50;99.90
21944;DHT22;11136;48.778;9.126;2023-09-19T00:56:21;18.50;99.90
21944;DHT22;11136;48.778;9.126;2023-09-19T00:58:48;18.50;99.90
21944;DHT22;11136;48.778;9.126;2023-09-19T01:01:14;18.50;99.90
21944;DHT22;11136;48.778;9.126;2023-09-19T01:03:40;18.40;99.90
21944;DHT22;11136;48.778;9.126;2023-09-19T01:06:06;18.70;99.90
21944;DHT22;11136;48.778;9.126;2023-09-19T01:08:33;18.40;99.90
21944;DHT22;11136;48.778;9.126;2023-09-19T01:11:20;18.40;99.90
21944;DHT22;11136;48.778;9.126;2023-09-19T01:21:54;18.20;99.90
21944;DHT22;11136;48.778;9.126;2023-09-19T01:27:25;18.40;99.90
21944;DHT22;11136;48.778;9.126;2023-09-19T01:29:50;18.40;99.90
21944;DHT22;11136;48.778;9.126;2023-09-19T01:32:19;18.40;99.90
21944;DHT22;11136;48.778;9.126;2023-09-19T01:34:54;18.40;99.90
21944;DHT22;11136;48.778;9.126;2023-09-19T01:37:23;18.40;99.90
21944;DHT22;11136;48.778;9.126;2023-09-19T01:39:59;18.40;99.90
21944;DHT22;11136;48.778;9.126;2023-09-19T01:42:44;18.40;99.90
21944;DHT22;11136;48.778;9.126;2023-09-19T01:47:41;18.40;99.90
21944;DHT22;11136;48.778;9.126;2023-09-19T01:52:57;18.40;99.90
21944;DHT22;11136;48.778;9.126;2023-09-19T01:55:22;18.40;99.90
21944;DHT22;11136;48.778;9.126;2023-09-19T02:00:16;18.40;99.90
21944;DHT22;11136;48.778;9.126;2023-09-19T02:02:44;18.60;99.90
21944;DHT22;11136;48.778;9.126;2023-09-19T02:05:10;18.40;99.90
21944;DHT22;11136;48.778;9.126;2023-09-19T02:07:36;18.30;99.90
21944;DHT22;11136;48.778;9.126;2023-09-19T02:10:05;18.40;99.90
21944;DHT22;11136;48.778;9.126;2023-09-19T02:12:32;18.30;99.90
21944;DHT22;11136;48.778;9.126;2023-09-19T02:15:01;18.30;99.90
21944;DHT22;11136;48.778;9.126;2023-09-19T02:17:27;18.30;99.90
21944;DHT22;11136;48.778;9.126;2023-09-19T02:19:54;18.30;99.90
21944;DHT22;11136;48.778;9.126;2023-09-19T02:22:21;18.30;99.90
21944;DHT22;11136;48.778;9.126;2023-09-19T02:24:51;18.30;99.90
21944;DHT22;11136;48.778;9.126;2023-09-19T02:27:18;18.30;99.90
21944;DHT22;11136;48.778;9.126;2023-09-19T02:29:43;18.30;99.90
21944;DHT22;11136;48.778;9.126;2023-09-19T02:32:09;18.20;99.90
21944;DHT22;11136;48.778;9.126;2023-09-19T02:34:35;18.20;99.90
21944;DHT22;11136;48.778;9.126;2023-09-19T02:37:07;18.20;99.90
21944;DHT22;11136;48.778;9.126;2023-09-19T02:39:34;18.20;99.90
21944;DHT22;11136;48.778;9.126;2023-09-19T02:41:59;18.40;99.90
21944;DHT22;11136;48.778;9.126;2023-09-19T02:44:26;18.10;99.90
21944;DHT22;11136;48.778;9.126;2023-09-19T02:46:52;18.20;99.90
21944;DHT22;11136;48.778;9.126;2023-09-19T02:49:19;18.10;99.90
21944;DHT22;11136;48.778;9.126;2023-09-19T02:51:45;18.20;99.90
21944;DHT22;11136;48.778;9.126;2023-09-19T02:54:12;18.10;99.90
21944;DHT22;11136;48.778;9.126;2023-09-19T02:56:38;18.10;99.90
21944;DHT22;11136;48.778;9.126;2023-09-19T02:59:03;18.10;99.90
21944;DHT22;11136;48.778;9.126;2023-09-19T03:01:29;18.10;99.90
21944;DHT22;11136;48.778;9.126;2023-09-19T03:03:55;18.10;99.90
21944;DHT22;11136;48.778;9.126;2023-09-19T03:06:21;18.10;99.90
21944;DHT22;11136;48.778;9.126;2023-09-19T03:08:47;18.10;99.90
21944;DHT22;11136;48.778;9.126;2023-09-19T03:11:15;18.10;99.90
21944;DHT22;11136;48.778;9.126;2023-09-19T03:13:42;18.10;99.90
21944;DHT22;11136;48.778;9.126;2023-09-19T03:16:09;18.10;99.90
21944;DHT22;11136;48.778;9.126;2023-09-19T03:18:35;18.10;99.90
21944;DHT22;11136;48.778;9.126;2023-09-19T03:21:00;18.10;99.90
21944;DHT22;11136;48.778;9.126;2023-09-19T03:23:26;18.10;99.90
21944;DHT22;11136;48.778;9.126;2023-09-19T03:25:53;18.10;99.90
21944;DHT22;11136;48.778;9.126;2023-09-19T03:28:18;18.20;99.90
21944;DHT22;11136;48.778;9.126;2023-09-19T03:30:45;18.40;99.90
21944;DHT22;11136;48.778;9.126;2023-09-19T03:33:13;18.10;99.90
21944;DHT22;11136;48.778;9.126;2023-09-19T03:35:39;18.20;99.90
21944;DHT22;11136;48.778;9.126;2023-09-19T03:38:05;18.20;99.90
21944;DHT22;11136;48.778;9.126;2023-09-19T03:40:30;18.20;99.90
21944;DHT22;11136;48.778;9.126;2023-09-19T03:42:56;18.50;99.90
21944;DHT22;11136;48.778;9.126;2023-09-19T03:45:21;18.20;99.90
21944;DHT22;11136;48.778;9.126;2023-09-19T03:47:47;18.30;99.90
21944;DHT22;11136;48.778;9.126;2023-09-19T03:50:13;18.30;99.90
21944;DHT22;11136;48.778;9.126;2023-09-19T03:52:45;18.30;99.90
21944;DHT22;11136;48.778;9.126;2023-09-19T03:55:11;18.30;99.90
21944;DHT22;11136;48.778;9.126;2023-09-19T03:57:37;18.30;99.90
21944;DHT22;11136;48.778;9.126;2023-09-19T04:00:03;18.30;99.90
21944;DHT22;11136;48.778;9.126;2023-09-19T04:02:32;18.40;99.90
21944;DHT22;11136;48.778;9.126;2023-09-19T04:04:58;18.30;99.90
21944;DHT22;11136;48.778;9.126;2023-09-19T04:07:24;18.30;99.90
21944;DHT22;11136;48.778;9.126;2023-09-19T04:09:51;18.50;99.90
21944;DHT22;11136;48.778;9.126;2023-09-19T04:12:18;18.30;99.90
21944;DHT22;11136;48.778;9.126;2023-09-19T04:14:44;18.30;99.90
21944;DHT22;11136;48.778;9.126;2023-09-19T04:17:09;18.30;99.90
21944;DHT22;11136;48.778;9.126;2023-09-19T04:19:36;18.30;99.90
21944;DHT22;11136;48.778;9.126;2023-09-19T04:22:02;18.30;99.90
21944;DHT22;11136;48.778;9.126;2023-09-19T04:24:28;18.30;99.90
21944;DHT22;11136;48.778;9.126;2023-09-19T04:26:53;18.50;99.90
21944;DHT22;11136;48.778;9.126;2023-09-19T04:29:19;18.30;99.90
21944;DHT22;11136;48.778;9.126;2023-09-19T04:31:45;18.40;99.90
21944;DHT22;11136;48.778;9.126;2023-09-19T04:34:11;18.30;99.90
21944;DHT22;11136;48.778;9.126;2023-09-19T04:36:42;18.30;99.90
21944;DHT22;11136;48.778;9.126;2023-09-19T04:39:08;18.30;99.90
21944;DHT22;11136;48.778;9.126;2023-09-19T04:41:38;18.30;99.90
21944;DHT22;11136;48.778;9.126;2023-09-19T04:44:06;18.30;99.90
21944;DHT22;11136;48.778;9.126;2023-09-19T04:46:34;18.30;99.90
21944;DHT22;11136;48.778;9.126;2023-09-19T04:48:59;18.30;99.90
21944;DHT22;11136;48.778;9.126;2023-09-19T04:51:25;18.30;99.90
21944;DHT22;11136;48.778;9.126;2023-09-19T04:53:54;18.30;99.90
21944;DHT22;11136;48.778;9.126;2023-09-19T04:56:20;18.30;99.90
21944;DHT22;11136;48.778;9.126;2023-09-19T04:58:46;18.20;99.90
21944;DHT22;11136;48.778;9.126;2023-09-19T05:01:11;18.20;99.90
21944;DHT22;11136;48.778;9.126;2023-09-19T05:03:39;18.20;99.90
21944;DHT22;11136;48.778;9.126;2023-09-19T05:06:05;18.20;99.90
21944;DHT22;11136;48.778;9.126;2023-09-19T05:08:30;18.20;99.90
21944;DHT22;11136;48.778;9.126;2023-09-19T05:10:56;18.10;99.90
21944;DHT22;11136;48.778;9.126;2023-09-19T05:13:22;18.10;99.90
21944;DHT22;11136;48.778;9.126;2023-09-19T05:15:49;18.10;99.90
21944;DHT22;11136;48.778;9.126;2023-09-19T05:18:15;18.00;99.90
21944;DHT22;11136;48.778;9.126;2023-09-19T05:20:41;18.00;99.90
21944;DHT22;11136;48.778;9.126;2023-09-19T05:23:07;18.00;99.90
21944;DHT22;11136;48.778;9.126;2023-09-19T05:25:35;17.90;99.90
21944;DHT22;11136;48.778;9.126;2023-09-19T05:28:04;18.20;99.90
21944;DHT22;11136;48.778;9.126;2023-09-19T05:30:34;17.90;99.90
21944;DHT22;11136;48.778;9.126;2023-09-19T05:33:01;17.90;99.90
21944;DHT22;11136;48.778;9.126;2023-09-19T05:35:28;17.90;99.90
21944;DHT22;11136;48.778;9.126;2023-09-19T05:37:54;17.90;99.90
21944;DHT22;11136;48.778;9.126;2023-09-19T05:40:20;17.90;99.90
21944;DHT22;11136;48.778;9.126;2023-09-19T05:42:46;18.00;99.90
21944;DHT22;11136;48.778;9.126;2023-09-19T05:45:12;18.00;99.90
21944;DHT22;11136;48.778;9.126;2023-09-19T05:47:41;18.00;99.90
21944;DHT22;11136;48.778;9.126;2023-09-19T05:50:08;18.00;99.90
21944;DHT22;11136;48.778;9.126;2023-09-19T05:52:37;18.00;99.90
21944;DHT22;11136;48.778;9.126;2023-09-19T05:55:06;18.00;99.90
21944;DHT22;11136;48.778;9.126;2023-09-19T05:57:34;17.90;99.90
21944;DHT22;11136;48.778;9.126;2023-09-19T05:59:59;17.80;99.90
21944;DHT22;11136;48.778;9.126;2023-09-19T06:02:25;17.80;99.90
21944;DHT22;11136;48.778;9.126;2023-09-19T06:04:55;17.80;99.90
21944;DHT22;11136;48.778;9.126;2023-09-19T06:07:21;17.80;99.90
21944;DHT22;11136;48.778;9.126;2023-09-19T06:09:48;17.70;99.90
21944;DHT22;11136;48.778;9.126;2023-09-19T06:12:14;17.70;99.90
21944;DHT22;11136;48.778;9.126;2023-09-19T06:14:41;17.70;99.90
21944;DHT22;11136;48.778;9.126;2023-09-19T06:17:07;17.70;99.90
21944;DHT22;11136;48.778;9.126;2023-09-19T06:19:33;17.70;99.90
21944;DHT22;11136;48.778;9.126;2023-09-19T06:21:58;17.70;99.90
21944;DHT22;11136;48.778;9.126;2023-09-19T06:24:24;17.70;99.90
21944;DHT22;11136;48.778;9.126;2023-09-19T06:26:51;17.70;99.90
21944;DHT22;11136;48.778;9.126;2023-09-19T06:29:18;17.60;99.90
21944;DHT22;11136;48.778;9.126;2023-09-19T06:31:43;17.60;99.90
21944;DHT22;11136;48.778;9.126;2023-09-19T06:34:10;17.60;99.90
21944;DHT22;11136;48.778;9.126;2023-09-19T06:36:35;17.60;99.90
21944;DHT22;11136;48.778;9.126;2023-09-19T06:39:01;17.60;99.90
21944;DHT22;11136;48.778;9.126;2023-09-19T06:41:29;17.60;99.90
21944;DHT22;11136;48.778;9.126;2023-09-19T06:43:55;17.60;99.90
21944;DHT22;11136;48.778;9.126;2023-09-19T06:46:20;17.50;99.90
21944;DHT22;11136;48.778;9.126;2023-09-19T06:48:46;17.60;99.90
21944;DHT22;11136;48.778;9.126;2023-09-19T06:51:13;17.60;99.90
21944;DHT22;11136;48.778;9.126;2023-09-19T06:53:40;17.60;99.90
21944;DHT22;11136;48.778;9.126;2023-09-19T06:56:06;17.60;99.90
21944;DHT22;11136;48.778;9.126;2023-09-19T06:58:32;17.70;99.90
21944;DHT22;11136;48.778;9.126;2023-09-19T07:00:58;17.70;99.90
21944;DHT22;11136;48.778;9.126;2023-09-19T07:03:24;17.70;99.90
21944;DHT22;11136;48.778;9.126;2023-09-19T07:05:52;17.70;99.90
21944;DHT22;11136;48.778;9.126;2023-09-19T07:08:18;17.70;99.90
21944;DHT22;11136;48.778;9.126;2023-09-19T07:10:44;17.80;99.90
21944;DHT22;11136;48.778;9.126;2023-09-19T07:13:19;17.80;99.90
21944;DHT22;11136;48.778;9.126;2023-09-19T07:15:45;17.80;99.90
21944;DHT22;11136;48.778;9.126;2023-09-19T07:18:15;17.80;99.90
21944;DHT22;11136;48.778;9.126;2023-09-19T07:20:42;17.80;99.90
21944;DHT22;11136;48.778;9.126;2023-09-19T07:23:15;17.80;99.90
21944;DHT22;11136;48.778;9.126;2023-09-19T07:25:41;17.80;99.90
21944;DHT22;11136;48.778;9.126;2023-09-19T07:28:06;17.80;99.90
21944;DHT22;11136;48.778;9.126;2023-09-19T07:30:32;17.90;99.90
21944;DHT22;11136;48.778;9.126;2023-09-19T07:32:57;17.90;99.90
21944;DHT22;11136;48.778;9.126;2023-09-19T07:35:23;18.00;99.90
21944;DHT22;11136;48.778;9.126;2023-09-19T07:37:49;18.00;99.90
21944;DHT22;11136;48.778;9.126;2023-09-19T07:40:17;18.10;99.90
21944;DHT22;11136;48.778;9.126;2023-09-19T07:42:43;18.20;99.90
21944;DHT22;11136;48.778;9.126;2023-09-19T07:45:10;18.20;99.90
21944;DHT22;11136;48.778;9.126;2023-09-19T07:47:40;18.30;99.90
21944;DHT22;11136;48.778;9.126;2023-09-19T07:50:08;18.40;99.90
21944;DHT22;11136;48.778;9.126;2023-09-19T07:52:35;18.50;99.90
21944;DHT22;11136;48.778;9.126;2023-09-19T07:55:00;18.50;99.90
21944;DHT22;11136;48.778;9.126;2023-09-19T07:57:26;18.50;99.90
21944;DHT22;11136;48.778;9.126;2023-09-19T07:59:53;18.50;99.90
21944;DHT22;11136;48.778;9.126;2023-09-19T08:02:19;18.60;99.90
21944;DHT22;11136;48.778;9.126;2023-09-19T08:04:45;18.60;99.90
21944;DHT22;11136;48.778;9.126;2023-09-19T08:07:14;18.60;99.90
21944;DHT22;11136;48.778;9.126;2023-09-19T08:09:39;18.70;99.90
21944;DHT22;11136;48.778;9.126;2023-09-19T08:12:06;18.70;99.90
21944;DHT22;11136;48.778;9.126;2023-09-19T08:14:33;18.80;99.90
21944;DHT22;11136;48.778;9.126;2023-09-19T08:16:59;18.80;99.90
21944;DHT22;11136;48.778;9.126;2023-09-19T08:19:26;18.90;99.90
21944;DHT22;11136;48.778;9.126;2023-09-19T08:22:00;18.90;99.90
21944;DHT22;11136;48.778;9.126;2023-09-19T08:24:27;18.90;99.90
21944;DHT22;11136;48.778;9.126;2023-09-19T08:26:54;19.00;99.90
21944;DHT22;11136;48.778;9.126;2023-09-19T08:29:21;19.00;99.90
21944;DHT22;11136;48.778;9.126;2023-09-19T08:31:46;19.10;99.90
21944;DHT22;11136;48.778;9.126;2023-09-19T08:34:14;19.10;99.90
21944;DHT22;11136;48.778;9.126;2023-09-19T08:36:40;19.20;99.90
21944;DHT22;11136;48.778;9.126;2023-09-19T08:39:08;19.20;99.90
21944;DHT22;11136;48.778;9.126;2023-09-19T08:41:34;19.20;99.90
21944;DHT22;11136;48.778;9.126;2023-09-19T08:43:59;19.30;99.90
21944;DHT22;11136;48.778;9.126;2023-09-19T08:46:27;19.30;99.90
21944;DHT22;11136;48.778;9.126;2023-09-19T08:49:39;19.40;99.90
21944;DHT22;11136;48.778;9.126;2023-09-19T08:51:46;19.40;99.90
21944;DHT22;11136;48.778;9.126;2023-09-19T08:54:19;19.40;99.90
21944;DHT22;11136;48.778;9.126;2023-09-19T08:56:47;19.40;99.90
21944;DHT22;11136;48.778;9.126;2023-09-19T08:59:13;19.40;99.90
21944;DHT22;11136;48.778;9.126;2023-09-19T09:01:39;19.50;99.90
21944;DHT22;11136;48.778;9.126;2023-09-19T09:04:10;19.50;99.90
21944;DHT22;11136;48.778;9.126;2023-09-19T09:06:38;19.60;99.90
21944;DHT22;11136;48.778;9.126;2023-09-19T09:09:05;19.70;99.90
21944;DHT22;11136;48.778;9.126;2023-09-19T09:11:32;19.80;99.90
21944;DHT22;11136;48.778;9.126;2023-09-19T09:13:58;19.90;99.90
21944;DHT22;11136;48.778;9.126;2023-09-19T09:16:24;20.00;99.90
21944;DHT22;11136;48.778;9.126;2023-09-19T09:18:51;20.00;99.90
21944;DHT22;11136;48.778;9.126;2023-09-19T09:21:18;20.00;99.90
21944;DHT22;11136;48.778;9.126;2023-09-19T09:23:43;20.00;99.90
21944;DHT22;11136;48.778;9.126;2023-09-19T09:26:11;20.00;99.90
21944;DHT22;11136;48.778;9.126;2023-09-19T09:28:38;20.00;99.90
21944;DHT22;11136;48.778;9.126;2023-09-19T09:31:21;20.00;99.90
21944;DHT22;11136;48.778;9.126;2023-09-19T09:33:52;20.20;99.90
21944;DHT22;11136;48.778;9.126;2023-09-19T09:36:19;20.30;99.90
21944;DHT22;11136;48.778;9.126;2023-09-19T09:38:59;20.40;99.90
21944;DHT22;11136;48.778;9.126;2023-09-19T09:41:35;20.50;99.90
21944;DHT22;11136;48.778;9.126;2023-09-19T09:44:16;20.50;99.40
21944;DHT22;11136;48.778;9.126;2023-09-19T09:46:44;20.50;99.10
21944;DHT22;11136;48.778;9.126;2023-09-19T09:49:24;20.50;99.90
21944;DHT22;11136;48.778;9.126;2023-09-19T09:52:04;20.50;99.60
21944;DHT22;11136;48.778;9.126;2023-09-19T09:54:39;20.60;99.70
21944;DHT22;11136;48.778;9.126;2023-09-19T09:57:23;20.70;99.30
21944;DHT22;11136;48.778;9.126;2023-09-19T09:59:51;20.70;99.10
21944;DHT22;11136;48.778;9.126;2023-09-19T10:02:30;20.70;98.50
21944;DHT22;11136;48.778;9.126;2023-09-19T10:05:11;20.80;98.30
21944;DHT22;11136;48.778;9.126;2023-09-19T10:07:46;20.80;98.50
21944;DHT22;11136;48.778;9.126;2023-09-19T10:10:35;20.80;98.40
21944;DHT22;11136;48.778;9.126;2023-09-19T10:13:09;20.80;98.60
21944;DHT22;11136;48.778;9.126;2023-09-19T10:15:39;20.80;98.00
21944;DHT22;11136;48.778;9.126;2023-09-19T10:18:10;20.70;97.60
21944;DHT22;11136;48.778;9.126;2023-09-19T10:20:36;20.70;97.90
21944;DHT22;11136;48.778;9.126;2023-09-19T10:23:05;20.70;98.00
21944;DHT22;11136;48.778;9.126;2023-09-19T10:25:36;20.70;98.20
21944;DHT22;11136;48.778;9.126;2023-09-19T10:28:02;20.70;98.20
21944;DHT22;11136;48.778;9.126;2023-09-19T10:30:30;20.80;98.20
21944;DHT22;11136;48.778;9.126;2023-09-19T10:33:01;20.90;98.40
21944;DHT22;11136;48.778;9.126;2023-09-19T10:35:27;20.90;98.50
21944;DHT22;11136;48.778;9.126;2023-09-19T10:37:54;21.00;97.50
21944;DHT22;11136;48.778;9.126;2023-09-19T10:40:19;20.90;96.80
21944;DHT22;11136;48.778;9.126;2023-09-19T10:42:46;20.90;97.10
21944;DHT22;11136;48.778;9.126;2023-09-19T10:45:13;20.80;97.20
21944;DHT22;11136;48.778;9.126;2023-09-19T10:47:41;20.90;97.30
21944;DHT22;11136;48.778;9.126;2023-09-19T10:50:06;20.90;97.00
21944;DHT22;11136;48.778;9.126;2023-09-19T10:52:39;21.00;97.20
21944;DHT22;11136;48.778;9.126;2023-09-19T10:55:05;21.10;97.50
21944;DHT22;11136;48.778;9.126;2023-09-19T10:57:32;21.30;97.60
21944;DHT22;11136;48.778;9.126;2023-09-19T11:00:05;21.30;97.30
21944;DHT22;11136;48.778;9.126;2023-09-19T11:05:37;21.40;96.80
21944;DHT22;11136;48.778;9.126;2023-09-19T11:08:09;21.30;95.90
21944;DHT22;11136;48.778;9.126;2023-09-19T11:13:32;21.20;95.50
21944;DHT22;11136;48.778;9.126;2023-09-19T11:26:43;21.30;94.70
21944;DHT22;11136;48.778;9.126;2023-09-19T11:29:30;21.40;94.20
21944;DHT22;11136;48.778;9.126;2023-09-19T11:31:57;21.50;93.60
21944;DHT22;11136;48.778;9.126;2023-09-19T11:34:37;21.50;93.70
21944;DHT22;11136;48.778;9.126;2023-09-19T11:39:37;21.60;92.30
21944;DHT22;11136;48.778;9.126;2023-09-19T11:42:41;21.60;92.70
21944;DHT22;11136;48.778;9.126;2023-09-19T11:44:49;21.70;92.00
21944;DHT22;11136;48.778;9.126;2023-09-19T11:47:17;21.70;92.30
21944;DHT22;11136;48.778;9.126;2023-09-19T11:49:43;21.80;91.90
21944;DHT22;11136;48.778;9.126;2023-09-19T11:52:09;22.10;91.60
21944;DHT22;11136;48.778;9.126;2023-09-19T11:54:35;22.00;91.70
21944;DHT22;11136;48.778;9.126;2023-09-19T11:57:02;21.90;91.40
21944;DHT22;11136;48.778;9.126;2023-09-19T11:59:31;21.90;91.50
21944;DHT22;11136;48.778;9.126;2023-09-19T12:02:05;22.00;91.00
21944;DHT22;11136;48.778;9.126;2023-09-19T12:04:39;22.00;91.20
21944;DHT22;11136;48.778;9.126;2023-09-19T12:07:07;22.00;91.20
21944;DHT22;11136;48.778;9.126;2023-09-19T12:09:38;22.10;91.00
21944;DHT22;11136;48.778;9.126;2023-09-19T12:12:04;22.10;90.20
21944;DHT22;11136;48.778;9.126;2023-09-19T12:14:30;22.10;90.30
21944;DHT22;11136;48.778;9.126;2023-09-19T12:16:56;22.20;90.90
21944;DHT22;11136;48.778;9.126;2023-09-19T12:19:23;22.30;91.30
21944;DHT22;11136;48.778;9.126;2023-09-19T12:24:22;22.50;91.10
21944;DHT22;11136;48.778;9.126;2023-09-19T12:26:47;22.60;91.00
21944;DHT22;11136;48.778;9.126;2023-09-19T12:29:17;22.60;90.40
21944;DHT22;11136;48.778;9.126;2023-09-19T12:31:52;22.60;89.50
21944;DHT22;11136;48.778;9.126;2023-09-19T12:34:26;22.60;90.10
21944;DHT22;11136;48.778;9.126;2023-09-19T12:37:04;22.60;90.20
21944;DHT22;11136;48.778;9.126;2023-09-19T12:39:53;22.60;90.60
21944;DHT22;11136;48.778;9.126;2023-09-19T12:42:22;22.70;91.10
21944;DHT22;11136;48.778;9.126;2023-09-19T12:44:48;23.10;91.10
21944;DHT22;11136;48.778;9.126;2023-09-19T12:47:17;22.90;91.10
21944;DHT22;11136;48.778;9.126;2023-09-19T12:52:35;23.00;86.60
21944;DHT22;11136;48.778;9.126;2023-09-19T12:55:02;23.00;87.90
21944;DHT22;11136;48.778;9.126;2023-09-19T12:57:28;23.00;88.70
21944;DHT22;11136;48.778;9.126;2023-09-19T12:59:58;23.00;87.60
21944;DHT22;11136;48.778;9.126;2023-09-19T13:02:24;23.00;85.60
21944;DHT22;11136;48.778;9.126;2023-09-19T13:04:53;23.10;87.10
21944;DHT22;11136;48.778;9.126;2023-09-19T13:10:04;23.10;88.00
21944;DHT22;11136;48.778;9.126;2023-09-19T13:12:37;23.10;88.90
21944;DHT22;11136;48.778;9.126;2023-09-19T13:15:07;23.20;88.20
21944;DHT22;11136;48.778;9.126;2023-09-19T13:17:46;23.20;87.20
21944;DHT22;11136;48.778;9.126;2023-09-19T13:20:23;23.20;85.90
21944;DHT22;11136;48.778;9.126;2023-09-19T13:22:57;23.20;86.80
21944;DHT22;11136;48.778;9.126;2023-09-19T13:25:33;23.10;84.70
21944;DHT22;11136;48.778;9.126;2023-09-19T13:28:00;23.10;84.80
21944;DHT22;11136;48.778;9.126;2023-09-19T13:30:29;23.00;85.50
21944;DHT22;11136;48.778;9.126;2023-09-19T13:33:09;23.00;86.20
21944;DHT22;11136;48.778;9.126;2023-09-19T13:35:38;23.00;87.00
21944;DHT22;11136;48.778;9.126;2023-09-19T13:38:05;23.10;87.00
21944;DHT22;11136;48.778;9.126;2023-09-19T13:40:32;23.20;84.50
21944;DHT22;11136;48.778;9.126;2023-09-19T13:43:00;23.10;83.00
21944;DHT22;11136;48.778;9.126;2023-09-19T13:45:26;23.00;83.60
21944;DHT22;11136;48.778;9.126;2023-09-19T13:47:52;23.00;83.70
21944;DHT22;11136;48.778;9.126;2023-09-19T13:50:18;23.00;85.00
21944;DHT22;11136;48.778;9.126;2023-09-19T13:52:49;23.10;85.80
21944;DHT22;11136;48.778;9.126;2023-09-19T13:55:16;23.00;86.40
21944;DHT22;11136;48.778;9.126;2023-09-19T13:57:48;23.00;86.90
21944;DHT22;11136;48.778;9.126;2023-09-19T14:00:15;23.10;87.20
21944;DHT22;11136;48.778;9.126;2023-09-19T14:02:41;23.10;87.70
21944;DHT22;11136;48.778;9.126;2023-09-19T14:05:09;23.20;88.20
21944;DHT22;11136;48.778;9.126;2023-09-19T14:07:37;23.20;88.50
21944;DHT22;11136;48.778;9.126;2023-09-19T14:10:03;23.50;88.30
21944;DHT22;11136;48.778;9.126;2023-09-19T14:12:29;23.30;88.10
21944;DHT22;11136;48.778;9.126;2023-09-19T14:14:55;23.30;85.50
21944;DHT22;11136;48.778;9.126;2023-09-19T14:17:21;23.40;85.90
21944;DHT22;11136;48.778;9.126;2023-09-19T14:19:47;23.40;86.00
21944;DHT22;11136;48.778;9.126;2023-09-19T14:22:12;23.40;86.30
21944;DHT22;11136;48.778;9.126;2023-09-19T14:24:39;23.30;87.10
21944;DHT22;11136;48.778;9.126;2023-09-19T14:27:06;23.30;84.80
21944;DHT22;11136;48.778;9.126;2023-09-19T14:29:34;23.30;85.20
21944;DHT22;11136;48.778;9.126;2023-09-19T14:31:59;23.20;85.80
21944;DHT22;11136;48.778;9.126;2023-09-19T14:34:25;23.40;86.40
21944;DHT22;11136;48.778;9.126;2023-09-19T14:36:50;23.30;86.80
21944;DHT22;11136;48.778;9.126;2023-09-19T14:39:16;23.30;87.20
21944;DHT22;11136;48.778;9.126;2023-09-19T14:41:41;23.30;87.50
21944;DHT22;11136;48.778;9.126;2023-09-19T14:44:07;23.30;87.50
21944;DHT22;11136;48.778;9.126;2023-09-19T14:46:32;23.40;87.10
21944;DHT22;11136;48.778;9.126;2023-09-19T14:48:58;23.40;84.90
21944;DHT22;11136;48.778;9.126;2023-09-19T14:51:29;23.40;84.30
21944;DHT22;11136;48.778;9.126;2023-09-19T14:53:55;23.50;84.30
21944;DHT22;11136;48.778;9.126;2023-09-19T14:56:21;23.70;82.70
21944;DHT22;11136;48.778;9.126;2023-09-19T14:58:49;23.50;84.50
21944;DHT22;11136;48.778;9.126;2023-09-19T15:01:14;23.50;83.80
21944;DHT22;11136;48.778;9.126;2023-09-19T15:03:40;23.50;84.30
21944;DHT22;11136;48.778;9.126;2023-09-19T15:06:10;23.50;84.60
21944;DHT22;11136;48.778;9.126;2023-09-19T15:08:39;23.50;83.90
21944;DHT22;11136;48.778;9.126;2023-09-19T15:11:08;23.50;84.00
21944;DHT22;11136;48.778;9.126;2023-09-19T15:13:35;23.50;84.10
21944;DHT22;11136;48.778;9.126;2023-09-19T15:16:06;23.40;84.20
21944;DHT22;11136;48.778;9.126;2023-09-19T15:18:35;23.50;84.00
21944;DHT22;11136;48.778;9.126;2023-09-19T15:21:05;23.40;84.50
21944;DHT22;11136;48.778;9.126;2023-09-19T15:23:31;23.40;85.00
21944;DHT22;11136;48.778;9.126;2023-09-19T15:26:02;23.40;85.00
21944;DHT22;11136;48.778;9.126;2023-09-19T15:28:27;23.60;85.00
21944;DHT22;11136;48.778;9.126;2023-09-19T15:31:00;23.40;85.20
21944;DHT22;11136;48.778;9.126;2023-09-19T15:33:26;23.30;84.10
21944;DHT22;11136;48.778;9.126;2023-09-19T15:36:03;23.30;83.20
21944;DHT22;11136;48.778;9.126;2023-09-19T15:38:29;23.30;83.70
21944;DHT22;11136;48.778;9.126;2023-09-19T15:40:54;23.20;83.40
21944;DHT22;11136;48.778;9.126;2023-09-19T15:43:20;23.20;83.60
21944;DHT22;11136;48.778;9.126;2023-09-19T15:45:47;23.10;84.00
21944;DHT22;11136;48.778;9.126;2023-09-19T15:48:13;23.10;83.80
21944;DHT22;11136;48.778;9.126;2023-09-19T15:50:39;23.10;83.50
21944;DHT22;11136;48.778;9.126;2023-09-19T15:53:07;23.00;83.90
21944;DHT22;11136;48.778;9.126;2023-09-19T15:55:41;23.00;83.10
21944;DHT22;11136;48.778;9.126;2023-09-19T15:58:07;23.00;83.50
21944;DHT22;11136;48.778;9.126;2023-09-19T16:00:32;22.90;82.60
21944;DHT22;11136;48.778;9.126;2023-09-19T16:03:01;22.90;83.20
21944;DHT22;11136;48.778;9.126;2023-09-19T16:05:28;23.00;84.50
21944;DHT22;11136;48.778;9.126;2023-09-19T16:07:53;22.80;83.70
21944;DHT22;11136;48.778;9.126;2023-09-19T16:10:20;22.90;83.90
21944;DHT22;11136;48.778;9.126;2023-09-19T16:12:47;22.90;84.20
21944;DHT22;11136;48.778;9.126;2023-09-19T16:15:12;22.80;83.10
21944;DHT22;11136;48.778;9.126;2023-09-19T16:17:39;22.80;82.90
21944;DHT22;11136;48.778;9.126;2023-09-19T16:20:05;22.80;83.40
21944;DHT22;11136;48.778;9.126;2023-09-19T16:22:40;22.80;83.50